sensor_id;sensor_type;location;lat;lon;timestamp;pressure;altitude;pressure_sealevel;temperature;humidity
13968;BME280;39536;52.198;9.920;2023-10-19T00:01:54;99202.28;;;8.63;100.00
13968;BME280;39536;52.198;9.920;2023-10-19T00:04:21;99205.69;;;8.65;100.00
13968;BME280;39536;52.198;9.920;2023-10-19T00:06:51;99200.28;;;8.69;100.00
13968;BME280;39536;52.198;9.920;2023-10-19T00:09:19;99191.03;;;8.64;100.00
13968;BME280;39536;52.198;9.920;2023-10-19T00:11:46;99181.75;;;8.58;100.00
13968;BME280;39536;52.198;9.920;2023-10-19T00:14:12;99183.66;;;8.54;100.00
13968;BME280;39536;52.198;9.920;2023-10-19T00:16:49;99183.84;;;8.50;100.00
13968;BME280;39536;52.198;9.920;2023-10-19T00:19:18;99175.22;;;8.49;100.00
13968;BME280;39536;52.198;9.920;2023-10-19T00:21:52;99172.78;;;8.46;100.00
13968;BME280;39536;52.198;9.920;2023-10-19T00:24:23;99164.16;;;8.46;100.00
13968;BME280;39536;52.198;9.920;2023-10-19T00:26:49;99162.78;;;8.39;100.00
13968;BME280;39536;52.198;9.920;2023-10-19T00:29:19;99160.09;;;8.40;100.00
13968;BME280;39536;52.198;9.920;2023-10-19T00:31:58;99158.53;;;8.36;100.00
13968;BME280;39536;52.198;9.920;2023-10-19T00:34:25;99148.97;;;8.37;100.00
13968;BME280;39536;52.198;9.920;2023-10-19T00:36:54;99146.13;;;8.43;100.00
13968;BME280;39536;52.198;9.920;2023-10-19T00:39:21;99151.13;;;8.47;100.00
13968;BME280;39536;52.198;9.920;2023-10-19T00:41:49;99147.63;;;8.48;100.00
13968;BME280;39536;52.198;9.920;2023-10-19T00:44:25;99144.31;;;8.45;100.00
13968;BME280;39536;52.198;9.920;2023-10-19T00:47:03;99137.16;;;8.50;100.00
13968;BME280;39536;52.198;9.920;2023-10-19T00:49:37;99133.84;;;8.46;100.00
13968;BME280;39536;52.198;9.920;2023-10-19T00:52:07;99131.34;;;8.45;100.00
13968;BME280;39536;52.198;9.920;2023-10-19T00:54:39;99134.38;;;8.34;100.00
13968;BME280;39536;52.198;9.920;2023-10-19T00:57:12;99132.63;;;8.34;100.00
13968;BME280;39536;52.198;9.920;2023-10-19T00:59:42;99120.53;;;8.35;100.00
13968;BME280;39536;52.198;9.920;2023-10-19T01:02:14;99116.22;;;8.34;100.00
13968;BME280;39536;52.198;9.920;2023-10-19T01:04:47;99118.00;;;8.33;100.00
13968;BME280;39536;52.198;9.920;2023-10-19T01:07:21;99107.63;;;8.33;100.00
13968;BME280;39536;52.198;9.920;2023-10-19T01:09:54;99104.97;;;8.35;100.00
13968;BME280;39536;52.198;9.920;2023-10-19T01:12:25;99103.63;;;8.26;100.00
13968;BME280;39536;52.198;9.920;2023-10-19T01:15:03;99101.47;;;8.17;100.00
13968;BME280;39536;52.198;9.920;2023-10-19T01:17:33;99100.47;;;8.20;100.00
13968;BME280;39536;52.198;9.920;2023-10-19T01:20:08;99092.69;;;8.20;100.00
13968;BME280;39536;52.198;9.920;2023-10-19T01:22:53;99094.13;;;8.25;100.00
13968;BME280;39536;52.198;9.920;2023-10-19T01:25:32;99096.88;;;8.22;100.00
13968;BME280;39536;52.198;9.920;2023-10-19T01:28:07;99087.56;;;8.18;100.00
13968;BME280;39536;52.198;9.920;2023-10-19T01:30:34;99078.16;;;8.16;100.00
13968;BME280;39536;52.198;9.920;2023-10-19T01:33:01;99068.84;;;8.12;100.00
13968;BME280;39536;52.198;9.920;2023-10-19T01:35:29;99069.13;;;8.05;100.00
13968;BME280;39536;52.198;9.920;2023-10-19T01:38:18;99064.03;;;8.04;100.00
13968;BME280;39536;52.198;9.920;2023-10-19T01:40:43;99066.03;;;7.97;100.00
13968;BME280;39536;52.198;9.920;2023-10-19T01:43:13;99049.59;;;7.98;100.00
13968;BME280;39536;52.198;9.920;2023-10-19T01:45:45;99047.75;;;8.00;100.00
13968;BME280;39536;52.198;9.920;2023-10-19T01:48:12;99040.69;;;8.04;100.00
13968;BME280;39536;52.198;9.920;2023-10-19T01:50:38;99032.06;;;8.03;100.00
13968;BME280;39536;52.198;9.920;2023-10-19T01:53:05;99033.94;;;8.00;100.00
13968;BME280;39536;52.198;9.920;2023-10-19T01:55:39;99021.97;;;7.97;100.00
13968;BME280;39536;52.198;9.920;2023-10-19T01:58:06;99016.63;;;8.00;100.00
13968;BME280;39536;52.198;9.920;2023-10-19T02:00:32;99006.13;;;8.03;100.00
13968;BME280;39536;52.198;9.920;2023-10-19T02:03:08;99005.81;;;7.92;100.00
13968;BME280;39536;52.198;9.920;2023-10-19T02:05:35;99005.94;;;7.89;100.00
13968;BME280;39536;52.198;9.920;2023-10-19T02:08:08;98996.63;;;7.85;100.00
13968;BME280;39536;52.198;9.920;2023-10-19T02:10:35;99010.78;;;7.78;100.00
13968;BME280;39536;52.198;9.920;2023-10-19T02:13:03;99001.09;;;7.81;100.00
13968;BME280;39536;52.198;9.920;2023-10-19T02:15:33;98990.69;;;7.83;100.00
13968;BME280;39536;52.198;9.920;2023-10-19T02:18:00;98994.25;;;7.80;100.00
13968;BME280;39536;52.198;9.920;2023-10-19T02:20:30;98983.81;;;7.82;100.00
13968;BME280;39536;52.198;9.920;2023-10-19T02:22:57;98985.34;;;7.86;100.00
13968;BME280;39536;52.198;9.920;2023-10-19T02:25:34;98976.72;;;7.85;100.00
13968;BME280;39536;52.198;9.920;2023-10-19T02:28:04;98980.06;;;7.87;100.00
13968;BME280;39536;52.198;9.920;2023-10-19T02:30:32;98985.25;;;7.87;100.00
13968;BME280;39536;52.198;9.920;2023-10-19T02:32:59;98973.84;;;7.92;100.00
13968;BME280;39536;52.198;9.920;2023-10-19T02:35:26;98973.91;;;7.90;100.00
13968;BME280;39536;52.198;9.920;2023-10-19T02:37:52;98961.88;;;7.89;100.00
13968;BME280;39536;52.198;9.920;2023-10-19T02:40:19;98961.03;;;7.89;100.00
13968;BME280;39536;52.198;9.920;2023-10-19T02:42:46;98953.94;;;7.92;100.00
13968;BME280;39536;52.198;9.920;2023-10-19T02:45:15;98959.47;;;7.84;100.00
13968;BME280;39536;52.198;9.920;2023-10-19T02:47:43;98969.16;;;7.81;100.00
13968;BME280;39536;52.198;9.920;2023-10-19T02:50:10;98953.47;;;7.84;100.00
13968;BME280;39536;52.198;9.920;2023-10-19T02:52:38;98953.31;;;7.87;100.00
13968;BME280;39536;52.198;9.920;2023-10-19T02:55:09;98952.47;;;7.86;100.00
13968;BME280;39536;52.198;9.920;2023-10-19T02:57:36;98946.09;;;7.94;100.00
13968;BME280;39536;52.198;9.920;2023-10-19T03:00:05;98935.94;;;7.89;100.00
13968;BME280;39536;52.198;9.920;2023-10-19T03:02:38;98940.34;;;7.87;100.00
13968;BME280;39536;52.198;9.920;2023-10-19T03:05:05;98929.84;;;7.90;100.00
13968;BME280;39536;52.198;9.920;2023-10-19T03:07:39;98931.50;;;7.91;100.00
13968;BME280;39536;52.198;9.920;2023-10-19T03:10:11;98938.94;;;7.99;100.00
13968;BME280;39536;52.198;9.920;2023-10-19T03:12:49;98943.44;;;7.95;100.00
13968;BME280;39536;52.198;9.920;2023-10-19T03:15:16;98935.50;;;7.98;100.00
13968;BME280;39536;52.198;9.920;2023-10-19T03:17:44;98930.94;;;8.03;100.00
13968;BME280;39536;52.198;9.920;2023-10-19T03:20:11;98923.25;;;8.02;100.00
13968;BME280;39536;52.198;9.920;2023-10-19T03:22:37;98923.78;;;8.08;100.00
13968;BME280;39536;52.198;9.920;2023-10-19T03:25:05;98922.84;;;8.09;100.00
13968;BME280;39536;52.198;9.920;2023-10-19T03:28:00;98918.59;;;8.08;100.00
13968;BME280;39536;52.198;9.920;2023-10-19T03:30:33;98913.78;;;8.01;100.00
13968;BME280;39536;52.198;9.920;2023-10-19T03:33:07;98911.59;;;8.10;100.00
13968;BME280;39536;52.198;9.920;2023-10-19T03:35:40;98906.75;;;8.03;100.00
13968;BME280;39536;52.198;9.920;2023-10-19T03:38:07;98906.69;;;8.04;100.00
13968;BME280;39536;52.198;9.920;2023-10-19T03:40:40;98900.09;;;7.97;100.00
13968;BME280;39536;52.198;9.920;2023-10-19T03:43:11;98901.66;;;8.01;100.00
13968;BME280;39536;52.198;9.920;2023-10-19T03:45:43;98903.63;;;7.96;100.00
13968;BME280;39536;52.198;9.920;2023-10-19T03:48:17;98896.78;;;7.95;100.00
13968;BME280;39536;52.198;9.920;2023-10-19T03:50:54;98888.91;;;7.97;100.00
13968;BME280;39536;52.198;9.920;2023-10-19T03:53:25;98885.19;;;8.02;100.00
13968;BME280;39536;52.198;9.920;2023-10-19T03:55:52;98887.63;;;8.05;100.00
13968;BME280;39536;52.198;9.920;2023-10-19T03:58:20;98885.81;;;8.07;100.00
13968;BME280;39536;52.198;9.920;2023-10-19T04:00:47;98874.75;;;8.04;100.00
13968;BME280;39536;52.198;9.920;2023-10-19T04:03:18;98873.13;;;8.01;100.00
13968;BME280;39536;52.198;9.920;2023-10-19T04:05:50;98870.84;;;7.95;100.00
13968;BME280;39536;52.198;9.920;2023-10-19T04:08:23;98879.31;;;7.99;100.00
13968;BME280;39536;52.198;9.920;2023-10-19T04:10:51;98875.78;;;8.00;100.00
13968;BME280;39536;52.198;9.920;2023-10-19T04:13:35;98870.84;;;7.95;100.00
13968;BME280;39536;52.198;9.920;2023-10-19T04:16:02;98864.88;;;7.93;100.00
13968;BME280;39536;52.198;9.920;2023-10-19T04:18:30;98864.97;;;7.92;100.00
13968;BME280;39536;52.198;9.920;2023-10-19T04:21:00;98860.69;;;7.91;100.00
13968;BME280;39536;52.198;9.920;2023-10-19T04:23:31;98861.31;;;7.96;100.00
13968;BME280;39536;52.198;9.920;2023-10-19T04:26:00;98864.09;;;7.91;100.00
13968;BME280;39536;52.198;9.920;2023-10-19T04:28:30;98858.38;;;7.84;100.00
13968;BME280;39536;52.198;9.920;2023-10-19T04:31:03;98857.25;;;7.90;100.00
13968;BME280;39536;52.198;9.920;2023-10-19T04:33:33;98856.56;;;7.86;100.00
13968;BME280;39536;52.198;9.920;2023-10-19T04:36:00;98851.28;;;7.88;100.00
13968;BME280;39536;52.198;9.920;2023-10-19T04:38:27;98843.59;;;7.86;100.00
13968;BME280;39536;52.198;9.920;2023-10-19T04:41:03;98849.63;;;7.87;100.00
13968;BME280;39536;52.198;9.920;2023-10-19T04:43:32;98842.47;;;7.92;100.00
13968;BME280;39536;52.198;9.920;2023-10-19T04:45:59;98837.28;;;7.92;100.00
13968;BME280;39536;52.198;9.920;2023-10-19T04:48:26;98830.34;;;7.93;100.00
13968;BME280;39536;52.198;9.920;2023-10-19T04:51:01;98840.03;;;7.89;100.00
13968;BME280;39536;52.198;9.920;2023-10-19T04:53:35;98824.69;;;7.84;100.00
13968;BME280;39536;52.198;9.920;2023-10-19T04:56:03;98829.81;;;7.86;100.00
13968;BME280;39536;52.198;9.920;2023-10-19T04:58:30;98829.97;;;7.83;100.00
13968;BME280;39536;52.198;9.920;2023-10-19T05:00:56;98822.53;;;7.75;100.00
13968;BME280;39536;52.198;9.920;2023-10-19T05:03:24;98825.06;;;7.77;100.00
13968;BME280;39536;52.198;9.920;2023-10-19T05:05:51;98812.25;;;7.74;100.00
13968;BME280;39536;52.198;9.920;2023-10-19T05:08:19;98811.34;;;7.75;100.00
13968;BME280;39536;52.198;9.920;2023-10-19T05:10:50;98812.13;;;7.77;100.00
13968;BME280;39536;52.198;9.920;2023-10-19T05:13:17;98804.97;;;7.82;100.00
13968;BME280;39536;52.198;9.920;2023-10-19T05:15:44;98804.72;;;7.86;100.00
13968;BME280;39536;52.198;9.920;2023-10-19T05:18:14;98801.06;;;7.91;100.00
13968;BME280;39536;52.198;9.920;2023-10-19T05:20:40;98796.66;;;7.93;100.00
13968;BME280;39536;52.198;9.920;2023-10-19T05:23:08;98797.03;;;7.85;100.00
13968;BME280;39536;52.198;9.920;2023-10-19T05:25:40;98804.81;;;7.85;100.00
13968;BME280;39536;52.198;9.920;2023-10-19T05:28:07;98813.50;;;7.84;100.00
13968;BME280;39536;52.198;9.920;2023-10-19T05:30:37;98809.06;;;7.86;100.00
13968;BME280;39536;52.198;9.920;2023-10-19T05:33:04;98804.72;;;7.86;100.00
13968;BME280;39536;52.198;9.920;2023-10-19T05:35:31;98810.91;;;7.84;100.00
13968;BME280;39536;52.198;9.920;2023-10-19T05:38:00;98812.13;;;7.77;100.00
13968;BME280;39536;52.198;9.920;2023-10-19T05:40:34;98824.00;;;7.81;100.00
13968;BME280;39536;52.198;9.920;2023-10-19T05:43:05;98817.22;;;7.78;100.00
13968;BME280;39536;52.198;9.920;2023-10-19T05:45:35;98818.81;;;7.81;100.00
13968;BME280;39536;52.198;9.920;2023-10-19T05:48:19;98823.09;;;7.82;100.00
13968;BME280;39536;52.198;9.920;2023-10-19T05:50:46;98825.56;;;7.85;100.00
13968;BME280;39536;52.198;9.920;2023-10-19T05:53:12;98819.50;;;7.84;100.00
13968;BME280;39536;52.198;9.920;2023-10-19T05:55:43;98826.59;;;7.81;100.00
13968;BME280;39536;52.198;9.920;2023-10-19T05:58:12;98829.19;;;7.81;100.00
13968;BME280;39536;52.198;9.920;2023-10-19T06:00:39;98834.00;;;7.89;100.00
13968;BME280;39536;52.198;9.920;2023-10-19T06:03:06;98835.84;;;7.86;100.00
13968;BME280;39536;52.198;9.920;2023-10-19T06:05:32;98832.16;;;7.91;100.00
13968;BME280;39536;52.198;9.920;2023-10-19T06:07:59;98832.53;;;8.00;100.00
13968;BME280;39536;52.198;9.920;2023-10-19T06:10:27;98832.78;;;7.96;100.00
13968;BME280;39536;52.198;9.920;2023-10-19T06:12:54;98828.28;;;7.99;100.00
13968;BME280;39536;52.198;9.920;2023-10-19T06:15:27;98834.16;;;8.03;100.00
13968;BME280;39536;52.198;9.920;2023-10-19T06:17:56;98843.47;;;8.07;100.00
13968;BME280;39536;52.198;9.920;2023-10-19T06:20:23;98848.38;;;8.13;100.00
13968;BME280;39536;52.198;9.920;2023-10-19T06:22:50;98838.19;;;8.08;100.00
13968;BME280;39536;52.198;9.920;2023-10-19T06:25:24;98834.69;;;8.09;100.00
13968;BME280;39536;52.198;9.920;2023-10-19T06:27:52;98842.47;;;8.09;100.00
13968;BME280;39536;52.198;9.920;2023-10-19T06:30:22;98836.75;;;8.03;100.00
13968;BME280;39536;52.198;9.920;2023-10-19T06:32:55;98844.53;;;8.03;100.00
13968;BME280;39536;52.198;9.920;2023-10-19T06:35:22;98824.63;;;8.03;100.00
13968;BME280;39536;52.198;9.920;2023-10-19T06:37:49;98825.53;;;8.02;100.00
13968;BME280;39536;52.198;9.920;2023-10-19T06:40:25;98822.50;;;8.12;100.00
13968;BME280;39536;52.198;9.920;2023-10-19T06:43:05;98827.84;;;8.08;100.00
13968;BME280;39536;52.198;9.920;2023-10-19T06:45:32;98821.13;;;8.04;100.00
13968;BME280;39536;52.198;9.920;2023-10-19T06:48:04;98824.63;;;8.03;100.00
13968;BME280;39536;52.198;9.920;2023-10-19T06:50:35;98819.81;;;7.96;100.00
13968;BME280;39536;52.198;9.920;2023-10-19T06:53:02;98814.63;;;7.96;100.00
13968;BME280;39536;52.198;9.920;2023-10-19T06:55:30;98813.19;;;7.90;100.00
13968;BME280;39536;52.198;9.920;2023-10-19T06:58:01;98819.19;;;7.91;100.00
13968;BME280;39536;52.198;9.920;2023-10-19T07:00:28;98810.44;;;7.93;100.00
13968;BME280;39536;52.198;9.920;2023-10-19T07:02:56;98818.59;;;8.03;100.00
13968;BME280;39536;52.198;9.920;2023-10-19T07:05:33;98818.69;;;8.01;100.00
13968;BME280;39536;52.198;9.920;2023-10-19T07:08:00;98817.41;;;8.10;100.00
13968;BME280;39536;52.198;9.920;2023-10-19T07:10:42;98819.91;;;8.12;100.00
13968;BME280;39536;52.198;9.920;2023-10-19T07:13:09;98826.53;;;8.17;100.00
13968;BME280;39536;52.198;9.920;2023-10-19T07:15:36;98816.84;;;8.21;100.00
13968;BME280;39536;52.198;9.920;2023-10-19T07:18:09;98816.22;;;8.16;100.00
13968;BME280;39536;52.198;9.920;2023-10-19T07:20:38;98813.41;;;8.20;100.00
13968;BME280;39536;52.198;9.920;2023-10-19T07:23:04;98816.59;;;8.25;100.00
13968;BME280;39536;52.198;9.920;2023-10-19T07:25:38;98814.88;;;8.26;100.00
13968;BME280;39536;52.198;9.920;2023-10-19T07:28:11;98821.72;;;8.27;100.00
13968;BME280;39536;52.198;9.920;2023-10-19T07:30:48;98812.94;;;8.29;100.00
13968;BME280;39536;52.198;9.920;2023-10-19T07:33:16;98826.81;;;8.28;100.00
13968;BME280;39536;52.198;9.920;2023-10-19T07:35:45;98818.81;;;8.33;100.00
13968;BME280;39536;52.198;9.920;2023-10-19T07:38:16;98812.13;;;8.29;100.00
13968;BME280;39536;52.198;9.920;2023-10-19T07:40:49;98808.34;;;8.34;100.00
13968;BME280;39536;52.198;9.920;2023-10-19T07:43:18;98805.22;;;8.28;100.00
13968;BME280;39536;52.198;9.920;2023-10-19T07:45:45;98810.56;;;8.25;100.00
13968;BME280;39536;52.198;9.920;2023-10-19T07:48:13;98809.22;;;8.18;100.00
13968;BME280;39536;52.198;9.920;2023-10-19T07:50:45;98805.63;;;8.20;100.00
13968;BME280;39536;52.198;9.920;2023-10-19T07:53:18;98803.78;;;8.22;100.00
13968;BME280;39536;52.198;9.920;2023-10-19T07:55:45;98805.22;;;8.28;100.00
13968;BME280;39536;52.198;9.920;2023-10-19T07:58:12;98810.41;;;8.28;100.00
13968;BME280;39536;52.198;9.920;2023-10-19T08:00:38;98804.41;;;8.27;100.00
13968;BME280;39536;52.198;9.920;2023-10-19T08:03:07;98812.84;;;8.31;100.00
13968;BME280;39536;52.198;9.920;2023-10-19T08:05:36;98822.78;;;8.40;100.00
13968;BME280;39536;52.198;9.920;2023-10-19T08:08:05;98813.03;;;8.45;100.00
13968;BME280;39536;52.198;9.920;2023-10-19T08:10:35;98810.03;;;8.53;100.00
13968;BME280;39536;52.198;9.920;2023-10-19T08:13:04;98810.78;;;8.55;100.00
13968;BME280;39536;52.198;9.920;2023-10-19T08:15:34;98806.94;;;8.62;100.00
13968;BME280;39536;52.198;9.920;2023-10-19T08:18:17;98806.94;;;8.62;100.00
13968;BME280;39536;52.198;9.920;2023-10-19T08:20:44;98812.81;;;8.66;100.00
13968;BME280;39536;52.198;9.920;2023-10-19T08:23:16;98815.34;;;8.67;100.00
13968;BME280;39536;52.198;9.920;2023-10-19T08:25:48;98819.44;;;8.71;100.00
13968;BME280;39536;52.198;9.920;2023-10-19T08:28:19;98809.06;;;8.71;100.00
13968;BME280;39536;52.198;9.920;2023-10-19T08:30:46;98812.50;;;8.72;100.00
13968;BME280;39536;52.198;9.920;2023-10-19T08:33:23;98818.22;;;8.78;100.00
13968;BME280;39536;52.198;9.920;2023-10-19T08:35:51;98815.78;;;8.75;100.00
13968;BME280;39536;52.198;9.920;2023-10-19T08:38:25;98810.59;;;8.75;100.00
13968;BME280;39536;52.198;9.920;2023-10-19T08:40:56;98814.56;;;8.65;100.00
13968;BME280;39536;52.198;9.920;2023-10-19T08:43:26;98815.25;;;8.69;100.00
13968;BME280;39536;52.198;9.920;2023-10-19T08:45:54;98820.56;;;8.83;100.00
13968;BME280;39536;52.198;9.920;2023-10-19T08:48:33;98823.06;;;8.85;100.00
13968;BME280;39536;52.198;9.920;2023-10-19T08:51:09;98826.94;;;8.93;100.00
13968;BME280;39536;52.198;9.920;2023-10-19T08:53:37;98820.56;;;8.99;100.00
13968;BME280;39536;52.198;9.920;2023-10-19T08:56:06;98824.50;;;9.06;100.00
13968;BME280;39536;52.198;9.920;2023-10-19T08:58:34;98829.63;;;9.08;100.00
13968;BME280;39536;52.198;9.920;2023-10-19T09:01:10;98822.63;;;9.10;100.00
13968;BME280;39536;52.198;9.920;2023-10-19T09:03:48;98814.66;;;9.13;100.00
13968;BME280;39536;52.198;9.920;2023-10-19T09:06:21;98812.13;;;9.11;100.00
13968;BME280;39536;52.198;9.920;2023-10-19T09:08:47;98807.53;;;9.16;100.00
13968;BME280;39536;52.198;9.920;2023-10-19T09:11:17;98805.34;;;9.09;100.00
13968;BME280;39536;52.198;9.920;2023-10-19T09:13:47;98806.75;;;9.14;100.00
13968;BME280;39536;52.198;9.920;2023-10-19T09:16:14;98796.69;;;9.24;100.00
13968;BME280;39536;52.198;9.920;2023-10-19T09:18:44;98803.84;;;9.20;100.00
13968;BME280;39536;52.198;9.920;2023-10-19T09:21:15;98785.97;;;9.14;100.00
13968;BME280;39536;52.198;9.920;2023-10-19T09:23:52;98796.09;;;9.19;100.00
13968;BME280;39536;52.198;9.920;2023-10-19T09:26:20;98794.44;;;9.18;100.00
13968;BME280;39536;52.198;9.920;2023-10-19T09:28:47;98796.88;;;9.21;100.00
13968;BME280;39536;52.198;9.920;2023-10-19T09:31:15;98785.31;;;9.27;100.00
13968;BME280;39536;52.198;9.920;2023-10-19T09:33:44;98780.00;;;9.28;100.00
13968;BME280;39536;52.198;9.920;2023-10-19T09:36:13;98793.75;;;9.30;100.00
13968;BME280;39536;52.198;9.920;2023-10-19T09:38:43;98792.75;;;9.33;100.00
13968;BME280;39536;52.198;9.920;2023-10-19T09:41:19;98792.09;;;9.29;100.00
13968;BME280;39536;52.198;9.920;2023-10-19T09:43:47;98794.19;;;9.38;100.00
13968;BME280;39536;52.198;9.920;2023-10-19T09:46:20;98782.69;;;9.42;100.00
13968;BME280;39536;52.198;9.920;2023-10-19T09:48:51;98783.09;;;9.51;100.00
13968;BME280;39536;52.198;9.920;2023-10-19T09:51:22;98786.25;;;9.56;100.00
13968;BME280;39536;52.198;9.920;2023-10-19T09:53:59;98785.75;;;9.65;100.00
13968;BME280;39536;52.198;9.920;2023-10-19T09:56:31;98780.19;;;9.71;100.00
13968;BME280;39536;52.198;9.920;2023-10-19T09:59:05;98791.34;;;9.73;100.00
13968;BME280;39536;52.198;9.920;2023-10-19T10:04:33;98781.31;;;9.67;100.00
13968;BME280;39536;52.198;9.920;2023-10-19T10:07:04;98789.69;;;9.72;100.00
13968;BME280;39536;52.198;9.920;2023-10-19T10:09:39;98780.53;;;9.65;100.00
13968;BME280;39536;52.198;9.920;2023-10-19T10:12:16;98773.50;;;9.67;100.00
13968;BME280;39536;52.198;9.920;2023-10-19T10:14:54;98778.34;;;9.73;100.00
13968;BME280;39536;52.198;9.920;2023-10-19T10:17:22;98771.88;;;9.80;100.00
13968;BME280;39536;52.198;9.920;2023-10-19T10:19:50;98767.78;;;9.90;100.00
13968;BME280;39536;52.198;9.920;2023-10-19T10:22:21;98773.41;;;9.99;100.00
13968;BME280;39536;52.198;9.920;2023-10-19T10:24:54;98776.03;;;10.13;100.00
13968;BME280;39536;52.198;9.920;2023-10-19T10:27:22;98778.34;;;10.17;100.00
13968;BME280;39536;52.198;9.920;2023-10-19T10:29:56;98762.47;;;10.22;100.00
13968;BME280;39536;52.198;9.920;2023-10-19T10:32:42;98747.06;;;10.33;100.00
13968;BME280;39536;52.198;9.920;2023-10-19T10:35:09;98752.75;;;10.40;100.00
13968;BME280;39536;52.198;9.920;2023-10-19T10:37:53;98746.63;;;10.41;100.00
13968;BME280;39536;52.198;9.920;2023-10-19T10:40:23;98742.34;;;10.40;100.00
13968;BME280;39536;52.198;9.920;2023-10-19T10:43:04;98743.28;;;10.39;100.00
13968;BME280;39536;52.198;9.920;2023-10-19T10:45:31;98747.81;;;10.35;100.00
13968;BME280;39536;52.198;9.920;2023-10-19T10:47:58;98736.84;;;10.30;100.00
13968;BME280;39536;52.198;9.920;2023-10-19T10:50:29;98741.56;;;10.24;100.00
13968;BME280;39536;52.198;9.920;2023-10-19T10:52:57;98737.38;;;10.21;100.00
13968;BME280;39536;52.198;9.920;2023-10-19T10:55:25;98739.25;;;10.19;100.00
13968;BME280;39536;52.198;9.920;2023-10-19T10:57:54;98738.19;;;10.22;100.00
13968;BME280;39536;52.198;9.920;2023-10-19T11:00:20;98732.16;;;10.21;100.00
13968;BME280;39536;52.198;9.920;2023-10-19T11:03:09;98740.47;;;10.28;100.00
13968;BME280;39536;52.198;9.920;2023-10-19T11:05:48;98733.41;;;10.30;100.00
13968;BME280;39536;52.198;9.920;2023-10-19T11:08:24;98721.34;;;10.29;100.00
13968;BME280;39536;52.198;9.920;2023-10-19T11:10:50;98729.03;;;10.30;100.00
13968;BME280;39536;52.198;9.920;2023-10-19T11:13:22;98732.81;;;10.25;100.00
13968;BME280;39536;52.198;9.920;2023-10-19T11:15:50;98726.06;;;10.22;100.00
13968;BME280;39536;52.198;9.920;2023-10-19T11:18:28;98723.13;;;10.28;100.00
13968;BME280;39536;52.198;9.920;2023-10-19T11:20:56;98727.09;;;10.34;100.00
13968;BME280;39536;52.198;9.920;2023-10-19T11:23:36;98731.09;;;10.39;100.00
13968;BME280;39536;52.198;9.920;2023-10-19T11:26:06;98720.13;;;10.49;100.00
13968;BME280;39536;52.198;9.920;2023-10-19T11:28:34;98718.53;;;10.60;100.00
13968;BME280;39536;52.198;9.920;2023-10-19T11:31:13;98720.19;;;10.61;100.00
13968;BME280;39536;52.198;9.920;2023-10-19T11:33:41;98724.81;;;10.71;100.00
13968;BME280;39536;52.198;9.920;2023-10-19T11:36:08;98720.66;;;10.68;100.00
13968;BME280;39536;52.198;9.920;2023-10-19T11:38:39;98729.13;;;10.72;100.00
13968;BME280;39536;52.198;9.920;2023-10-19T11:41:06;98728.19;;;10.73;100.00
13968;BME280;39536;52.198;9.920;2023-10-19T11:43:33;98724.00;;;10.70;100.00
13968;BME280;39536;52.198;9.920;2023-10-19T11:46:02;98721.50;;;10.69;100.00
13968;BME280;39536;52.198;9.920;2023-10-19T11:48:31;98725.84;;;10.68;100.00
13968;BME280;39536;52.198;9.920;2023-10-19T11:51:01;98725.66;;;10.71;100.00
13968;BME280;39536;52.198;9.920;2023-10-19T11:53:36;98721.31;;;10.72;100.00
13968;BME280;39536;52.198;9.920;2023-10-19T11:56:06;98724.00;;;10.70;100.00
13968;BME280;39536;52.198;9.920;2023-10-19T11:58:33;98727.72;;;10.66;100.00
13968;BME280;39536;52.198;9.920;2023-10-19T12:01:00;98721.03;;;10.62;100.00
13968;BME280;39536;52.198;9.920;2023-10-19T12:03:34;98718.22;;;10.65;100.00
13968;BME280;39536;52.198;9.920;2023-10-19T12:06:03;98713.78;;;10.67;100.00
13968;BME280;39536;52.198;9.920;2023-10-19T12:08:31;98718.03;;;10.68;100.00
13968;BME280;39536;52.198;9.920;2023-10-19T12:10:59;98714.25;;;10.59;100.00
13968;BME280;39536;52.198;9.920;2023-10-19T12:13:33;98713.88;;;10.66;100.00
13968;BME280;39536;52.198;9.920;2023-10-19T12:16:00;98723.16;;;10.70;100.00
13968;BME280;39536;52.198;9.920;2023-10-19T12:18:30;98713.50;;;10.72;100.00
13968;BME280;39536;52.198;9.920;2023-10-19T12:20:56;98711.72;;;10.72;100.00
13968;BME280;39536;52.198;9.920;2023-10-19T12:23:25;98702.28;;;10.84;100.00
13968;BME280;39536;52.198;9.920;2023-10-19T12:25:52;98706.19;;;10.91;100.00
13968;BME280;39536;52.198;9.920;2023-10-19T12:28:19;98702.44;;;10.95;100.00
13968;BME280;39536;52.198;9.920;2023-10-19T12:30:47;98702.91;;;11.02;100.00
13968;BME280;39536;52.198;9.920;2023-10-19T12:33:14;98705.31;;;11.05;100.00
13968;BME280;39536;52.198;9.920;2023-10-19T12:35:41;98695.38;;;10.97;100.00
13968;BME280;39536;52.198;9.920;2023-10-19T12:38:15;98696.22;;;10.98;100.00
13968;BME280;39536;52.198;9.920;2023-10-19T12:40:49;98695.22;;;11.13;100.00
13968;BME280;39536;52.198;9.920;2023-10-19T12:43:25;98700.25;;;11.16;100.00
13968;BME280;39536;52.198;9.920;2023-10-19T12:45:57;98707.88;;;11.19;100.00
13968;BME280;39536;52.198;9.920;2023-10-19T12:48:24;98699.41;;;11.16;100.00
13968;BME280;39536;52.198;9.920;2023-10-19T12:50:55;98692.91;;;11.08;100.00
13968;BME280;39536;52.198;9.920;2023-10-19T12:53:28;98682.47;;;11.08;100.00
13968;BME280;39536;52.198;9.920;2023-10-19T12:55:55;98696.56;;;11.06;100.00
13968;BME280;39536;52.198;9.920;2023-10-19T12:58:24;98690.31;;;11.08;100.00
13968;BME280;39536;52.198;9.920;2023-10-19T13:00:57;98700.13;;;11.18;100.00
13968;BME280;39536;52.198;9.920;2023-10-19T13:03:24;98697.53;;;11.18;100.00
13968;BME280;39536;52.198;9.920;2023-10-19T13:05:52;98683.78;;;11.16;100.00
13968;BME280;39536;52.198;9.920;2023-10-19T13:08:19;98679.59;;;11.13;100.00
13968;BME280;39536;52.198;9.920;2023-10-19T13:10:47;98685.22;;;11.07;100.00
13968;BME280;39536;52.198;9.920;2023-10-19T13:13:18;98687.69;;;11.08;100.00
13968;BME280;39536;52.198;9.920;2023-10-19T13:15:48;98686.94;;;10.94;100.00
13968;BME280;39536;52.198;9.920;2023-10-19T13:18:16;98681.56;;;10.82;100.00